Sara Borchard — V2BY8 — position and weather

sailwx.info

Track history (hours):
 
Tides and Currents Weather Stations Pressure Air Temp Water Temp Dewpoint Dewpoint Depression Visibility Wind Speed Wind Dir Waves Ship Positions

Sara Borchard

Last reported at 2015-Jan-27 13:33 UTC. Time now 2015-Jan-29 04:22 UTC.
Position N 32°01' E 034°06'.

Length 134 m; draft 7.8 m.

Type: Ship (hazmat cat A). MMSI: 304962000.

Date/timePositionNaut miles runAvg speedWind from/ knotsBaromVisibWave heightAir tempDewpointWater temp
2015-Jan-27 13:33N 32°01' E 034°06'  
2015-Jan-24 18:11N 38°29' E 015°27'1116.0
2015-Jan-24 17:30N 38°36' E 015°16'34316.1
2015-Jan-23 20:14N 42°34' E 009°51'3015.9
2015-Jan-23 18:20N 43°03' E 009°38'1215.4
2015-Jan-23 17:33N 43°14' E 009°33'1615.7
2015-Jan-23 16:33N 43°29' E 009°26'1616.5
2015-Jan-23 15:33N 43°44' E 009°17'1616.3
2015-Jan-23 14:33N 43°60' E 009°09'1616.1
2015-Jan-23 13:33N 44°15' E 009°01'11 9.9
2015-Jan-23 12:27N 44°24' E 008°54'0 0.0
2015-Jan-23 11:27N 44°24' E 008°54'0 0.0
2015-Jan-23 10:32N 44°24' E 008°54'0 0.0
2015-Jan-23 09:32N 44°24' E 008°54'0 0.0
2015-Jan-23 08:32N 44°24' E 008°54'0 0.0
2015-Jan-23 07:31N 44°24' E 008°54'0 0.0
2015-Jan-23 06:31N 44°24' E 008°54'0 0.0
2015-Jan-23 05:30N 44°24' E 008°54'1 0.9
2015-Jan-23 04:33N 44°24' E 008°55'6 5.7
2015-Jan-23 03:33N 44°19' E 008°59'1414.1
2015-Jan-23 02:33N 44°09' E 008°45'1414.5
2015-Jan-23 01:33N 43°59' E 008°30'3514.2
2015-Jan-22 23:05N 43°35' E 007°54'814.6
2015-Jan-22 22:33N 43°31' E 007°46'1515.5
2015-Jan-22 21:33N 43°22' E 007°28'1615.9
2015-Jan-22 20:33N 43°13' E 007°10'1616.3
2015-Jan-22 19:33N 43°04' E 006°51'1616.2
2015-Jan-22 18:33N 42°56' E 006°32'5115.9
2015-Jan-22 15:21N 43°04' E 005°24'1316.0
2015-Jan-22 14:33N 43°10' E 005°09'1312.9
2015-Jan-22 13:33N 43°21' E 005°20'1 0.5
2015-Jan-22 12:28N 43°21' E 005°20'0 0.0
2015-Jan-22 11:33N 43°21' E 005°20'0 0.0
2015-Jan-22 10:26N 43°21' E 005°20'0 0.0
2015-Jan-22 08:08N 43°21' E 005°20'0 0.0
2015-Jan-22 07:32N 43°21' E 005°20'0 0.0
2015-Jan-22 05:25N 43°21' E 005°20'0 0.1
2015-Jan-22 04:34N 43°21' E 005°20'8 8.2
2015-Jan-22 03:33N 43°16' E 005°11'1211.3
2015-Jan-22 02:30N 43°05' E 005°05'1313.9
2015-Jan-22 01:33N 42°56' E 004°53'1414.0
2015-Jan-22 00:33N 42°45' E 004°40'6014.7
2015-Jan-21 20:28N 42°03' E 003°41'1716.0
2015-Jan-21 19:25N 41°53' E 003°24'2015.0
2015-Jan-21 18:05N 41°41' E 003°02'1314.7
2015-Jan-21 17:13N 41°33' E 002°48'1015.4
2015-Jan-21 16:33N 41°27' E 002°38'19 1.3
2015-Jan-21 02:20N 41°12' E 002°22'1316.2
2015-Jan-21 01:32N 41°06' E 002°37'1615.8
2015-Jan-21 00:33N 40°59' E 002°55'1615.6
2015-Jan-20 23:33N 40°51' E 003°13'23216.2
2015-Jan-20 09:16N 39°03' E 007°41'1517.5
2015-Jan-20 08:24N 38°56' E 007°58'1516.7
2015-Jan-20 07:28N 38°49' E 008°15'1616.6
2015-Jan-20 06:31N 38°42' E 008°34'2517.1
2015-Jan-20 05:05N 38°34' E 009°04'14016.4
2015-Jan-19 20:32N 37°44' E 011°50'9116.7
2015-Jan-19 15:04N 36°57' E 013°29'816.3
2015-Jan-19 14:33N 36°53' E 013°38'1616.0
2015-Jan-19 13:34N 36°45' E 013°55'1616.0
2015-Jan-19 12:34N 36°38' E 014°13'1616.1
2015-Jan-19 11:34N 36°30' E 014°31'  
Track history (hours):
 
Tides and Currents Weather Stations Pressure Air Temp Water Temp Dewpoint Dewpoint Depression Visibility Wind Speed Wind Dir Waves Ship Positions

Sara Borchard

Last reported at 2015-Jan-27 13:33 UTC. Time now 2015-Jan-29 04:22 UTC.
Position N 32°01' E 034°06'.

Length 134 m; draft 7.8 m.

Type: Ship (hazmat cat A). MMSI: 304962000.

Date/timePositionNaut miles runAvg speedWind from/ knotsBaromVisibWave heightAir tempDewpointWater temp
2015-Jan-27 13:33N 32°01' E 034°06'  
2015-Jan-24 18:11N 38°29' E 015°27'1116.0
2015-Jan-24 17:30N 38°36' E 015°16'34316.1
2015-Jan-23 20:14N 42°34' E 009°51'3015.9
2015-Jan-23 18:20N 43°03' E 009°38'1215.4
2015-Jan-23 17:33N 43°14' E 009°33'1615.7
2015-Jan-23 16:33N 43°29' E 009°26'1616.5
2015-Jan-23 15:33N 43°44' E 009°17'1616.3
2015-Jan-23 14:33N 43°60' E 009°09'1616.1
2015-Jan-23 13:33N 44°15' E 009°01'11 9.9
2015-Jan-23 12:27N 44°24' E 008°54'0 0.0
2015-Jan-23 11:27N 44°24' E 008°54'0 0.0
2015-Jan-23 10:32N 44°24' E 008°54'0 0.0
2015-Jan-23 09:32N 44°24' E 008°54'0 0.0
2015-Jan-23 08:32N 44°24' E 008°54'0 0.0
2015-Jan-23 07:31N 44°24' E 008°54'0 0.0
2015-Jan-23 06:31N 44°24' E 008°54'0 0.0
2015-Jan-23 05:30N 44°24' E 008°54'1 0.9
2015-Jan-23 04:33N 44°24' E 008°55'6 5.7
2015-Jan-23 03:33N 44°19' E 008°59'1414.1
2015-Jan-23 02:33N 44°09' E 008°45'1414.5
2015-Jan-23 01:33N 43°59' E 008°30'3514.2
2015-Jan-22 23:05N 43°35' E 007°54'814.6
2015-Jan-22 22:33N 43°31' E 007°46'1515.5
2015-Jan-22 21:33N 43°22' E 007°28'1615.9
2015-Jan-22 20:33N 43°13' E 007°10'1616.3
2015-Jan-22 19:33N 43°04' E 006°51'1616.2
2015-Jan-22 18:33N 42°56' E 006°32'5115.9
2015-Jan-22 15:21N 43°04' E 005°24'1316.0
2015-Jan-22 14:33N 43°10' E 005°09'1312.9
2015-Jan-22 13:33N 43°21' E 005°20'1 0.5
2015-Jan-22 12:28N 43°21' E 005°20'0 0.0
2015-Jan-22 11:33N 43°21' E 005°20'0 0.0
2015-Jan-22 10:26N 43°21' E 005°20'0 0.0
2015-Jan-22 08:08N 43°21' E 005°20'0 0.0
2015-Jan-22 07:32N 43°21' E 005°20'0 0.0
2015-Jan-22 05:25N 43°21' E 005°20'0 0.1
2015-Jan-22 04:34N 43°21' E 005°20'8 8.2
2015-Jan-22 03:33N 43°16' E 005°11'1211.3
2015-Jan-22 02:30N 43°05' E 005°05'1313.9
2015-Jan-22 01:33N 42°56' E 004°53'1414.0
2015-Jan-22 00:33N 42°45' E 004°40'6014.7
2015-Jan-21 20:28N 42°03' E 003°41'1716.0
2015-Jan-21 19:25N 41°53' E 003°24'2015.0
2015-Jan-21 18:05N 41°41' E 003°02'1314.7
2015-Jan-21 17:13N 41°33' E 002°48'1015.4
2015-Jan-21 16:33N 41°27' E 002°38'19 1.3
2015-Jan-21 02:20N 41°12' E 002°22'1316.2
2015-Jan-21 01:32N 41°06' E 002°37'1615.8
2015-Jan-21 00:33N 40°59' E 002°55'1615.6
2015-Jan-20 23:33N 40°51' E 003°13'23216.2
2015-Jan-20 09:16N 39°03' E 007°41'1517.5
2015-Jan-20 08:24N 38°56' E 007°58'1516.7
2015-Jan-20 07:28N 38°49' E 008°15'1616.6
2015-Jan-20 06:31N 38°42' E 008°34'2517.1
2015-Jan-20 05:05N 38°34' E 009°04'14016.4
2015-Jan-19 20:32N 37°44' E 011°50'9116.7
2015-Jan-19 15:04N 36°57' E 013°29'816.3
2015-Jan-19 14:33N 36°53' E 013°38'1616.0
2015-Jan-19 13:34N 36°45' E 013°55'1616.0
2015-Jan-19 12:34N 36°38' E 014°13'1616.1
2015-Jan-19 11:34N 36°30' E 014°31'  

Dump ship's entire track history